Time;durP1;ratioP1;P1;durP2;ratioP2;P2;SDS_P1;SDS_P2;PMS_P1;PMS_P2;Temp;Humidity;BMP_temperature;BMP_pressure;BME280_temperature;BME280_humidity;BME280_pressure;Samples;Min_cycle;Max_cycle;Signal;HPM_P1;HPM_P2
2023/08/03 00:00:38;;;;;;;7.50;1.73;;;16.60;99.90;;;;;;5107938;28;20415;-71
2023/08/03 00:03:05;;;;;;;6.90;1.73;;;16.60;99.90;;;;;;5096917;28;20392;-71
2023/08/03 00:05:31;;;;;;;6.75;1.40;;;16.60;99.90;;;;;;5095267;27;20447;-71
2023/08/03 00:07:56;;;;;;;4.50;1.43;;;16.60;99.90;;;;;;5101128;28;20403;-72
2023/08/03 00:10:22;;;;;;;4.97;1.55;;;16.60;99.90;;;;;;5062565;28;20402;-71
2023/08/03 00:12:49;;;;;;;4.38;1.55;;;16.60;99.90;;;;;;5093340;28;20413;-72
2023/08/03 00:15:15;;;;;;;5.85;1.65;;;16.60;99.90;;;;;;5100215;28;21000;-72
2023/08/03 00:17:41;;;;;;;5.50;1.60;;;16.60;99.90;;;;;;5096756;28;20501;-72
2023/08/03 00:20:08;;;;;;;6.83;1.50;;;16.60;99.90;;;;;;5104675;28;20957;-70
2023/08/03 00:22:34;;;;;;;5.85;1.63;;;16.50;99.90;;;;;;5107800;28;20917;-70
2023/08/03 00:25:01;;;;;;;6.43;1.90;;;16.50;99.90;;;;;;5107338;28;20392;-70
2023/08/03 00:27:27;;;;;;;7.15;2.15;;;16.50;99.90;;;;;;5083777;28;20396;-71
2023/08/03 00:29:53;;;;;;;8.25;3.08;;;16.60;99.90;;;;;;5107907;28;20406;-71
2023/08/03 00:32:19;;;;;;;9.40;4.80;;;16.50;99.90;;;;;;5108888;28;20777;-70
2023/08/03 00:34:45;;;;;;;11.55;5.75;;;16.50;99.90;;;;;;5107703;28;20400;-71
2023/08/03 00:37:12;;;;;;;10.43;6.37;;;16.50;99.90;;;;;;5101734;28;20418;-71
2023/08/03 00:39:37;;;;;;;12.18;6.38;;;16.50;99.90;;;;;;5089536;28;20444;-71
2023/08/03 00:42:05;;;;;;;8.77;5.85;;;16.50;99.90;;;;;;5095008;28;20396;-71
2023/08/03 00:44:30;;;;;;;10.40;4.90;;;16.50;99.90;;;;;;5095713;28;20428;-71
2023/08/03 00:46:56;;;;;;;10.63;4.07;;;16.50;99.90;;;;;;5107789;28;20435;-70
2023/08/03 00:49:27;;;;;;;6.32;3.60;;;16.50;99.90;;;;;;5107687;28;20397;-70
2023/08/03 00:51:56;;;;;;;7.22;3.63;;;16.50;99.90;;;;;;5107053;28;20424;-71
2023/08/03 00:54:22;;;;;;;7.40;3.50;;;16.50;99.90;;;;;;5100585;28;20409;-71
2023/08/03 00:56:48;;;;;;;7.70;3.42;;;16.50;99.90;;;;;;5100481;28;20497;-71
2023/08/03 00:59:14;;;;;;;6.13;2.80;;;16.50;99.90;;;;;;5107987;28;20404;-72
2023/08/03 01:01:41;;;;;;;8.60;3.00;;;16.40;99.90;;;;;;5105411;28;20442;-71
2023/08/03 01:04:07;;;;;;;8.57;3.10;;;16.40;99.90;;;;;;5066789;28;20807;-71
2023/08/03 01:06:32;;;;;;;7.97;2.40;;;16.40;99.90;;;;;;5103708;28;20417;-71
2023/08/03 01:09:00;;;;;;;8.90;2.13;;;16.40;99.90;;;;;;5105961;28;20453;-70
2023/08/03 01:11:27;;;;;;;9.90;2.60;;;16.40;99.90;;;;;;5102778;28;20493;-71
2023/08/03 01:13:53;;;;;;;7.07;2.03;;;16.40;99.90;;;;;;5078375;28;20451;-71
2023/08/03 01:16:19;;;;;;;5.40;1.38;;;16.40;99.90;;;;;;5097208;28;20414;-71
2023/08/03 01:18:44;;;;;;;6.13;1.53;;;16.40;99.90;;;;;;5096348;28;20400;-71
2023/08/03 01:21:14;;;;;;;5.30;1.42;;;16.40;99.90;;;;;;5104278;28;20400;-71
2023/08/03 01:23:39;;;;;;;4.70;1.40;;;16.40;99.90;;;;;;5096093;28;20396;-71
2023/08/03 01:26:05;;;;;;;6.00;1.58;;;16.40;99.90;;;;;;5103332;28;20404;-71
2023/08/03 01:28:30;;;;;;;6.37;1.80;;;16.50;99.90;;;;;;5106995;28;20404;-71
2023/08/03 01:30:56;;;;;;;5.85;1.48;;;16.40;99.90;;;;;;5104883;28;20735;-71
2023/08/03 01:33:22;;;;;;;8.53;1.73;;;16.50;99.90;;;;;;5083830;28;20421;-70
2023/08/03 01:35:49;;;;;;;4.85;1.27;;;16.50;99.90;;;;;;5104444;28;20400;-70
2023/08/03 01:38:15;;;;;;;5.95;1.35;;;16.50;99.90;;;;;;5083662;28;20420;-69
2023/08/03 01:40:41;;;;;;;5.43;1.40;;;16.50;99.90;;;;;;5085959;28;20494;-69
2023/08/03 01:43:07;;;;;;;4.97;1.30;;;16.40;99.90;;;;;;5095083;28;20404;-69
2023/08/03 01:45:32;;;;;;;5.03;1.27;;;16.50;99.90;;;;;;5103537;28;20765;-69
2023/08/03 01:47:58;;;;;;;6.30;1.50;;;16.50;99.90;;;;;;5094817;28;20404;-69
2023/08/03 01:50:24;;;;;;;5.90;1.67;;;16.50;99.90;;;;;;5103925;28;20475;-69
2023/08/03 01:52:49;;;;;;;4.83;1.73;;;16.50;99.90;;;;;;5099466;28;20399;-70
2023/08/03 01:55:15;;;;;;;4.20;1.58;;;16.50;99.90;;;;;;5098716;28;20424;-70
2023/08/03 01:57:40;;;;;;;5.67;1.57;;;16.50;99.90;;;;;;5093357;28;20523;-69
2023/08/03 02:00:07;;;;;;;6.07;1.80;;;16.40;99.90;;;;;;5102233;28;20426;-69
2023/08/03 02:02:32;;;;;;;5.00;1.60;;;16.50;99.90;;;;;;5103222;28;20428;-69
2023/08/03 02:04:58;;;;;;;4.97;1.42;;;16.50;99.90;;;;;;5100886;28;20610;-70
2023/08/03 02:07:44;;;;;;;6.00;1.70;;;16.40;99.90;;;;;;5096061;28;20437;-70
2023/08/03 02:10:10;;;;;;;5.30;1.30;;;16.50;99.90;;;;;;5097672;28;20447;-69
2023/08/03 02:12:36;;;;;;;4.80;1.70;;;16.50;99.90;;;;;;5096081;28;20406;-70
2023/08/03 02:15:06;;;;;;;3.60;1.30;;;16.50;99.90;;;;;;5088702;28;20402;-70
2023/08/03 02:17:32;;;;;;;3.78;1.30;;;16.50;99.90;;;;;;5095021;28;20493;-70
2023/08/03 02:19:58;;;;;;;5.15;1.40;;;16.50;99.90;;;;;;5088612;28;20513;-70
2023/08/03 02:22:24;;;;;;;6.28;1.52;;;16.50;99.90;;;;;;5102609;28;21330;-70
2023/08/03 02:24:49;;;;;;;5.20;1.40;;;16.50;99.90;;;;;;5098038;28;20783;-70
2023/08/03 02:27:15;;;;;;;5.75;1.42;;;16.50;99.90;;;;;;5102043;28;20428;-70
2023/08/03 02:29:40;;;;;;;5.83;1.63;;;16.60;99.90;;;;;;5096152;28;20410;-70
2023/08/03 02:32:06;;;;;;;6.72;1.85;;;16.60;99.90;;;;;;5101920;28;20398;-70
2023/08/03 02:34:32;;;;;;;4.40;1.58;;;16.60;99.90;;;;;;5097186;28;20397;-70
2023/08/03 02:36:57;;;;;;;5.43;1.40;;;16.60;99.90;;;;;;5102836;28;20412;-70
2023/08/03 02:39:23;;;;;;;4.70;1.90;;;16.60;99.90;;;;;;5097494;28;20798;-70
2023/08/03 02:41:48;;;;;;;6.53;2.00;;;16.60;99.90;;;;;;5101901;28;20422;-70
2023/08/03 02:44:14;;;;;;;6.72;2.17;;;16.60;99.90;;;;;;5096866;28;21152;-70
2023/08/03 02:46:40;;;;;;;5.73;2.30;;;16.60;99.90;;;;;;5100142;28;20465;-70
2023/08/03 02:49:06;;;;;;;7.22;2.33;;;16.60;99.90;;;;;;5097110;28;20526;-70
2023/08/03 02:51:32;;;;;;;7.45;2.97;;;16.60;99.90;;;;;;5101904;28;20886;-70
2023/08/03 02:53:57;;;;;;;6.87;2.90;;;16.60;99.90;;;;;;5097555;28;20438;-70
2023/08/03 02:56:23;;;;;;;8.73;3.00;;;16.60;99.90;;;;;;5100767;28;20456;-71
2023/08/03 02:58:48;;;;;;;8.27;3.47;;;16.60;99.90;;;;;;5096763;28;20416;-71
2023/08/03 03:01:14;;;;;;;6.77;3.57;;;16.60;99.90;;;;;;5093022;28;20397;-71
2023/08/03 03:03:39;;;;;;;9.45;4.20;;;16.60;99.90;;;;;;5097020;28;20444;-71
2023/08/03 03:06:05;;;;;;;8.90;4.20;;;16.60;99.90;;;;;;5101441;28;20475;-71
2023/08/03 03:08:31;;;;;;;9.00;4.13;;;16.60;99.90;;;;;;5097226;28;20949;-71
2023/08/03 03:10:57;;;;;;;8.60;3.97;;;16.60;99.90;;;;;;5101113;28;20404;-71
2023/08/03 03:13:23;;;;;;;5.78;3.40;;;16.60;99.90;;;;;;5095228;28;20405;-71
2023/08/03 03:15:49;;;;;;;8.90;3.70;;;16.60;99.90;;;;;;5100449;28;20404;-71
2023/08/03 03:18:14;;;;;;;7.50;3.50;;;16.50;99.90;;;;;;5091258;28;20432;-71
2023/08/03 03:20:40;;;;;;;6.22;3.00;;;16.50;99.90;;;;;;5108059;28;20404;-71
2023/08/03 03:23:05;;;;;;;5.57;2.57;;;16.50;99.90;;;;;;5109482;28;20942;-72
2023/08/03 03:25:31;;;;;;;3.60;1.90;;;16.50;99.90;;;;;;5109267;28;20388;-72
2023/08/03 03:28:03;;;;;;;5.63;2.20;;;16.50;99.90;;;;;;5089953;28;20453;-72
2023/08/03 03:30:30;;;;;;;6.50;2.15;;;16.60;99.90;;;;;;5109934;28;20392;-72
2023/08/03 03:32:55;;;;;;;6.45;1.83;;;16.60;99.90;;;;;;5085217;28;20422;-70
2023/08/03 03:35:21;;;;;;;4.50;1.83;;;16.50;99.90;;;;;;5100157;28;20393;-70
2023/08/03 03:37:46;;;;;;;4.97;1.70;;;16.50;99.90;;;;;;5106150;28;20535;-70
2023/08/03 03:40:12;;;;;;;5.67;1.80;;;16.50;99.90;;;;;;5108022;28;20403;-70
2023/08/03 03:42:38;;;;;;;8.75;2.10;;;16.50;99.90;;;;;;5105568;28;20396;-70
2023/08/03 03:45:04;;;;;;;6.20;1.70;;;16.50;99.90;;;;;;5108428;28;20940;-70
2023/08/03 03:47:29;;;;;;;5.05;1.92;;;16.50;99.90;;;;;;5093742;28;20760;-70
2023/08/03 03:49:55;;;;;;;3.53;1.70;;;16.50;99.90;;;;;;5107733;28;20400;-70
2023/08/03 03:52:20;;;;;;;4.28;1.50;;;16.50;99.90;;;;;;5104657;28;20398;-70
2023/08/03 03:54:46;;;;;;;5.63;1.47;;;16.50;99.90;;;;;;5107033;28;20862;-70
2023/08/03 03:57:11;;;;;;;4.35;1.25;;;16.50;99.90;;;;;;5103790;28;20433;-70
2023/08/03 03:59:37;;;;;;;4.10;1.20;;;16.40;99.90;;;;;;5097914;28;20448;-70
2023/08/03 04:02:03;;;;;;;3.27;1.40;;;16.50;99.90;;;;;;5101954;28;20410;-70
2023/08/03 04:04:28;;;;;;;4.95;1.60;;;16.40;99.90;;;;;;5098342;28;20907;-70
2023/08/03 04:06:54;;;;;;;5.60;1.57;;;16.50;99.90;;;;;;5091329;28;20779;-71
2023/08/03 04:09:19;;;;;;;2.92;1.40;;;16.50;99.90;;;;;;5098753;28;20400;-71
2023/08/03 04:11:45;;;;;;;5.50;1.80;;;16.40;99.90;;;;;;5100795;28;20409;-70
2023/08/03 04:14:10;;;;;;;4.13;1.70;;;16.40;99.90;;;;;;5106624;28;20393;-70
2023/08/03 04:16:36;;;;;;;3.03;1.77;;;16.40;99.90;;;;;;5101001;28;20410;-70
2023/08/03 04:19:02;;;;;;;5.40;2.27;;;16.50;99.90;;;;;;5099683;28;20447;-70
2023/08/03 04:21:27;;;;;;;5.20;2.13;;;16.40;99.90;;;;;;5104164;28;20484;-71
2023/08/03 04:23:53;;;;;;;6.33;2.23;;;16.40;99.90;;;;;;5089256;28;20469;-71
2023/08/03 04:26:19;;;;;;;4.30;2.10;;;16.40;99.90;;;;;;5091744;28;20403;-70
2023/08/03 04:28:44;;;;;;;5.60;2.60;;;16.50;99.90;;;;;;5108636;28;20486;-70
2023/08/03 04:31:10;;;;;;;4.13;2.53;;;16.50;99.90;;;;;;5105577;27;20737;-70
2023/08/03 04:33:35;;;;;;;5.68;2.55;;;16.50;99.90;;;;;;5108162;28;20484;-70
2023/08/03 04:36:01;;;;;;;6.63;3.10;;;16.50;99.90;;;;;;5105512;28;20768;-70
2023/08/03 04:38:26;;;;;;;6.50;2.63;;;16.50;99.90;;;;;;5107676;28;20393;-70
2023/08/03 04:40:52;;;;;;;5.50;2.90;;;16.50;99.90;;;;;;5105330;28;20462;-71
2023/08/03 04:43:17;;;;;;;7.43;3.60;;;16.50;99.90;;;;;;5107916;28;20439;-71
2023/08/03 04:45:43;;;;;;;5.75;3.22;;;16.50;99.90;;;;;;5093490;28;20409;-70
2023/08/03 04:48:09;;;;;;;7.43;3.42;;;16.50;99.90;;;;;;5099070;27;20489;-71
2023/08/03 04:50:34;;;;;;;7.00;3.73;;;16.50;99.90;;;;;;5101466;28;20397;-70
2023/08/03 04:53:00;;;;;;;7.55;3.80;;;16.50;99.90;;;;;;5099304;28;20419;-70
2023/08/03 04:55:25;;;;;;;8.80;3.87;;;16.50;99.90;;;;;;5100978;28;20398;-71
2023/08/03 04:57:51;;;;;;;7.33;4.27;;;16.50;99.90;;;;;;5106062;28;20499;-70
2023/08/03 05:00:17;;;;;;;7.47;4.00;;;16.50;99.90;;;;;;5103638;28;20895;-71
2023/08/03 05:02:42;;;;;;;8.07;4.20;;;16.50;99.90;;;;;;5106673;27;20404;-71
2023/08/03 05:05:08;;;;;;;7.25;4.20;;;16.50;99.90;;;;;;5090788;28;20544;-70
2023/08/03 05:07:33;;;;;;;7.70;4.23;;;16.60;99.90;;;;;;5106608;28;20397;-71
2023/08/03 05:09:59;;;;;;;6.43;4.00;;;16.60;99.90;;;;;;5102661;28;20761;-70
2023/08/03 05:12:24;;;;;;;8.63;4.80;;;16.60;99.90;;;;;;5105046;28;20408;-71
2023/08/03 05:14:50;;;;;;;7.00;4.37;;;16.70;99.90;;;;;;5102345;28;20401;-70
2023/08/03 05:17:16;;;;;;;8.32;4.45;;;16.70;99.90;;;;;;5079297;28;20437;-70
2023/08/03 05:19:41;;;;;;;8.10;4.80;;;16.70;99.90;;;;;;5101995;28;20425;-71
2023/08/03 05:22:07;;;;;;;7.63;3.80;;;16.70;99.90;;;;;;5106858;28;20392;-71
2023/08/03 05:24:32;;;;;;;7.30;3.60;;;16.70;99.90;;;;;;5105901;28;20425;-71
2023/08/03 05:26:58;;;;;;;6.27;3.33;;;16.70;99.90;;;;;;5107277;28;20475;-71
2023/08/03 05:29:23;;;;;;;4.22;3.00;;;16.70;99.90;;;;;;5104409;28;20772;-68
2023/08/03 05:31:49;;;;;;;6.13;3.00;;;16.80;99.90;;;;;;5105830;28;20404;-69
2023/08/03 05:34:15;;;;;;;6.40;3.47;;;16.70;99.90;;;;;;5092438;28;20406;-68
2023/08/03 05:36:41;;;;;;;5.75;3.55;;;16.70;99.90;;;;;;5096518;28;20745;-70
2023/08/03 05:39:08;;;;;;;5.67;3.90;;;16.80;99.90;;;;;;5085880;28;21996;-70
2023/08/03 05:41:34;;;;;;;5.50;3.90;;;16.80;99.90;;;;;;5087590;28;20485;-70
2023/08/03 05:44:00;;;;;;;5.75;3.60;;;16.80;99.90;;;;;;5087533;28;21972;-70
2023/08/03 05:46:31;;;;;;;4.95;3.22;;;16.80;99.90;;;;;;5087180;28;20490;-71
2023/08/03 05:48:56;;;;;;;7.07;3.25;;;16.80;99.90;;;;;;5099340;28;20409;-71
2023/08/03 05:51:27;;;;;;;5.93;3.20;;;16.70;99.90;;;;;;5105094;28;20397;-71
2023/08/03 05:53:54;;;;;;;5.87;3.20;;;16.70;99.90;;;;;;5102197;28;20398;-70
2023/08/03 05:56:21;;;;;;;5.57;3.27;;;16.70;99.90;;;;;;5095709;28;20401;-71
2023/08/03 05:58:48;;;;;;;6.43;3.63;;;16.70;99.90;;;;;;5100650;28;20994;-70
2023/08/03 06:01:21;;;;;;;6.05;3.33;;;16.70;99.90;;;;;;5095596;28;20761;-71
2023/08/03 06:03:47;;;;;;;5.68;3.58;;;16.70;99.90;;;;;;5098999;28;20402;-71
2023/08/03 06:06:17;;;;;;;5.28;3.58;;;16.70;99.90;;;;;;5095213;28;20402;-71
2023/08/03 06:08:52;;;;;;;5.88;4.07;;;16.70;99.90;;;;;;5099653;28;20404;-71
2023/08/03 06:11:20;;;;;;;6.47;3.60;;;16.70;99.90;;;;;;5103394;28;20419;-71
2023/08/03 06:13:47;;;;;;;5.97;3.92;;;16.70;99.90;;;;;;5100564;28;20405;-71
2023/08/03 06:16:14;;;;;;;6.03;4.05;;;16.70;99.90;;;;;;5092211;28;20863;-71
2023/08/03 06:18:55;;;;;;;5.97;3.92;;;16.70;99.90;;;;;;5094339;28;20511;-71
2023/08/03 06:21:24;;;;;;;5.72;3.90;;;16.80;99.90;;;;;;5104368;28;20441;-71
2023/08/03 06:23:51;;;;;;;6.30;3.90;;;16.90;99.90;;;;;;5106879;28;20445;-71
2023/08/03 06:26:18;;;;;;;6.35;4.05;;;16.90;99.90;;;;;;5101878;28;20879;-71
2023/08/03 06:28:46;;;;;;;6.82;3.90;;;16.90;99.90;;;;;;5096937;28;20404;-71
2023/08/03 06:31:17;;;;;;;6.47;4.28;;;17.00;99.90;;;;;;5102150;28;20398;-71
2023/08/03 06:33:44;;;;;;;7.17;4.20;;;17.00;99.90;;;;;;5105281;28;20487;-71
2023/08/03 06:36:18;;;;;;;6.38;3.80;;;17.10;99.90;;;;;;5092646;28;20422;-71
2023/08/03 06:38:44;;;;;;;8.02;4.38;;;17.20;99.90;;;;;;5104573;28;20412;-71
2023/08/03 06:41:09;;;;;;;6.73;3.70;;;17.20;99.90;;;;;;5103499;28;20408;-71
2023/08/03 06:43:36;;;;;;;6.55;2.80;;;17.30;99.90;;;;;;5102707;28;20770;-71
2023/08/03 06:46:02;;;;;;;3.60;1.93;;;17.30;99.90;;;;;;5101709;28;20396;-71
2023/08/03 06:48:28;;;;;;;4.40;1.23;;;17.40;99.90;;;;;;5104255;28;20403;-71
2023/08/03 06:50:54;;;;;;;3.30;0.70;;;17.40;99.90;;;;;;5101393;28;20408;-71
2023/08/03 06:53:21;;;;;;;3.13;0.50;;;17.40;99.90;;;;;;5102956;28;20939;-71
2023/08/03 06:55:48;;;;;;;1.17;0.52;;;17.50;99.90;;;;;;5102820;28;20514;-71
2023/08/03 06:58:14;;;;;;;1.30;0.50;;;17.40;99.90;;;;;;5106297;28;20432;-71
2023/08/03 07:00:41;;;;;;;1.70;0.55;;;17.50;99.90;;;;;;5105965;28;20403;-71
2023/08/03 07:03:07;;;;;;;1.60;0.38;;;17.40;99.90;;;;;;5107121;28;20400;-71
2023/08/03 07:05:33;;;;;;;0.95;0.30;;;17.50;99.90;;;;;;5105377;28;20396;-71
2023/08/03 07:07:59;;;;;;;1.75;0.40;;;17.50;99.90;;;;;;5106550;28;20399;-71
2023/08/03 07:10:24;;;;;;;1.53;0.30;;;17.50;99.90;;;;;;5104655;28;20400;-71
2023/08/03 07:12:51;;;;;;;1.20;0.20;;;17.50;99.90;;;;;;5096934;28;20410;-71
2023/08/03 07:15:17;;;;;;;0.70;0.20;;;17.60;99.90;;;;;;5105476;28;20481;-71
2023/08/03 07:17:43;;;;;;;4.38;0.68;;;17.70;99.90;;;;;;5096378;28;20457;-71
2023/08/03 07:20:09;;;;;;;0.77;0.17;;;17.70;99.90;;;;;;5108176;28;20410;-71
2023/08/03 07:22:36;;;;;;;0.93;0.10;;;17.70;99.90;;;;;;5108753;28;20392;-71
2023/08/03 07:25:05;;;;;;;0.85;0.20;;;17.70;99.90;;;;;;5104561;28;20916;-71
2023/08/03 07:27:33;;;;;;;1.90;0.15;;;17.70;99.90;;;;;;5107980;28;20401;-71
2023/08/03 07:29:59;;;;;;;0.43;0.10;;;17.80;99.90;;;;;;5108164;28;20758;-71
2023/08/03 07:32:25;;;;;;;1.15;0.20;;;17.90;99.90;;;;;;5108213;28;20397;-71
2023/08/03 07:34:50;;;;;;;0.90;0.23;;;17.90;99.90;;;;;;5107993;28;20800;-71
2023/08/03 07:37:16;;;;;;;0.80;0.30;;;18.00;99.90;;;;;;5107498;28;20428;-71
2023/08/03 07:39:41;;;;;;;2.97;0.30;;;18.00;99.90;;;;;;5105606;28;20681;-71
2023/08/03 07:42:07;;;;;;;1.27;0.30;;;18.00;99.90;;;;;;5107005;28;20415;-71
2023/08/03 07:44:33;;;;;;;1.75;0.30;;;18.00;99.90;;;;;;5106241;28;20879;-71
2023/08/03 07:46:58;;;;;;;2.53;0.30;;;18.10;99.90;;;;;;5107005;28;20769;-71
2023/08/03 07:49:24;;;;;;;2.55;0.30;;;18.20;99.90;;;;;;5104617;28;20396;-71
2023/08/03 07:51:50;;;;;;;2.03;0.40;;;18.20;99.90;;;;;;5106776;28;20415;-71
2023/08/03 07:54:15;;;;;;;3.15;0.50;;;18.30;99.90;;;;;;5104024;28;20457;-71
2023/08/03 07:56:42;;;;;;;2.17;0.40;;;18.40;99.90;;;;;;5106020;28;20428;-71
2023/08/03 07:59:10;;;;;;;3.67;0.47;;;18.50;99.90;;;;;;5103364;28;21001;-71
2023/08/03 08:01:36;;;;;;;3.40;0.70;;;18.50;99.90;;;;;;5105397;28;20404;-71
2023/08/03 08:04:02;;;;;;;2.17;0.30;;;18.60;99.90;;;;;;5104076;28;20472;-71
2023/08/03 08:06:28;;;;;;;4.13;0.52;;;18.50;99.90;;;;;;5104517;28;20400;-71
2023/08/03 08:08:54;;;;;;;2.60;0.50;;;18.70;99.90;;;;;;5102290;28;21302;-72
2023/08/03 08:11:20;;;;;;;2.97;0.37;;;18.70;99.90;;;;;;5104991;28;20400;-71
2023/08/03 08:13:45;;;;;;;3.67;0.60;;;18.80;99.90;;;;;;5089884;28;20767;-71
2023/08/03 08:16:13;;;;;;;4.05;0.93;;;18.90;99.90;;;;;;5098595;28;20393;-71
2023/08/03 08:18:39;;;;;;;3.75;0.57;;;18.90;99.90;;;;;;5078603;28;20405;-71
2023/08/03 08:21:07;;;;;;;4.27;0.73;;;18.90;99.90;;;;;;5106878;28;20431;-71
2023/08/03 08:23:33;;;;;;;4.10;0.80;;;18.90;99.90;;;;;;5096361;28;20447;-71
2023/08/03 08:25:59;;;;;;;2.67;0.40;;;18.90;99.90;;;;;;5107651;28;20487;-72
2023/08/03 08:28:26;;;;;;;4.28;0.50;;;19.00;99.90;;;;;;5108868;28;20411;-72
2023/08/03 08:30:51;;;;;;;4.97;0.45;;;19.10;99.90;;;;;;5107044;28;20957;-71
2023/08/03 08:33:18;;;;;;;3.53;0.50;;;19.20;99.90;;;;;;5109152;28;20538;-72
2023/08/03 08:35:45;;;;;;;2.45;0.40;;;19.30;99.90;;;;;;5106166;28;20417;-71
2023/08/03 08:38:12;;;;;;;2.70;0.40;;;19.40;99.90;;;;;;5101563;28;20880;-72
2023/08/03 08:40:39;;;;;;;1.98;0.40;;;19.50;99.90;;;;;;5101546;28;20408;-71
2023/08/03 08:43:06;;;;;;;4.25;0.50;;;19.40;99.90;;;;;;5096546;28;20400;-72
2023/08/03 08:45:35;;;;;;;4.25;0.85;;;19.40;99.90;;;;;;5106146;28;20417;-72
2023/08/03 08:48:02;;;;;;;2.38;0.50;;;19.30;99.90;;;;;;5108226;28;20480;-71
2023/08/03 08:50:28;;;;;;;6.72;0.85;;;19.10;99.90;;;;;;5104698;28;20398;-71
2023/08/03 08:52:55;;;;;;;3.83;0.40;;;19.10;99.90;;;;;;5097281;28;20403;-72
2023/08/03 08:55:23;;;;;;;4.13;0.80;;;19.20;99.90;;;;;;5105379;28;20767;-72
2023/08/03 08:57:52;;;;;;;2.40;0.50;;;19.40;99.90;;;;;;5107295;28;20416;-72
2023/08/03 09:00:19;;;;;;;3.50;0.65;;;19.50;99.90;;;;;;5104250;28;20394;-72
2023/08/03 09:02:45;;;;;;;3.97;0.60;;;19.50;99.90;;;;;;5106805;28;21101;-72
2023/08/03 09:05:18;;;;;;;5.20;0.60;;;19.50;99.90;;;;;;5103384;28;20504;-72
2023/08/03 09:07:45;;;;;;;4.00;0.68;;;19.50;99.90;;;;;;5103614;28;20420;-72
2023/08/03 09:10:12;;;;;;;5.77;0.87;;;19.70;99.90;;;;;;5102097;28;20399;-72
2023/08/03 09:12:40;;;;;;;2.67;0.50;;;20.00;99.90;;;;;;5094846;28;20424;-72
2023/08/03 09:15:06;;;;;;;4.72;0.73;;;20.30;99.90;;;;;;5101529;28;20764;-71
2023/08/03 09:17:32;;;;;;;3.90;0.77;;;20.40;99.90;;;;;;5095614;28;20429;-72
2023/08/03 09:19:58;;;;;;;4.35;0.88;;;20.30;99.90;;;;;;5093001;28;20407;-72
2023/08/03 09:22:25;;;;;;;5.50;1.03;;;20.20;99.90;;;;;;5107958;28;20400;-72
2023/08/03 09:25:01;;;;;;;4.53;0.68;;;20.10;99.90;;;;;;5105742;28;20404;-72
2023/08/03 09:27:27;;;;;;;5.97;1.00;;;20.00;99.90;;;;;;5107032;28;20416;-72
2023/08/03 09:30:01;;;;;;;7.53;1.38;;;20.20;99.90;;;;;;5106142;28;20439;-72
2023/08/03 09:32:34;;;;;;;6.50;1.02;;;20.50;99.90;;;;;;5105387;28;20492;-72
2023/08/03 09:35:14;;;;;;;6.35;1.13;;;20.60;99.90;;;;;;5107767;28;20400;-72
2023/08/03 09:37:40;;;;;;;6.97;1.20;;;20.60;99.90;;;;;;5104273;28;20494;-72
2023/08/03 09:40:07;;;;;;;8.20;1.30;;;20.70;99.90;;;;;;5106797;28;20487;-72
2023/08/03 09:42:33;;;;;;;6.60;1.00;;;20.70;99.90;;;;;;5104456;28;20445;-72
2023/08/03 09:45:03;;;;;;;9.90;1.60;;;20.90;99.90;;;;;;5097475;28;20390;-72
2023/08/03 09:47:30;;;;;;;6.43;1.30;;;21.50;99.90;;;;;;5103503;28;20479;-73
2023/08/03 09:49:56;;;;;;;5.30;1.10;;;22.00;99.90;;;;;;5088562;28;20416;-73
2023/08/03 09:52:27;;;;;;;5.95;0.90;;;22.50;99.90;;;;;;5105096;28;20781;-72
2023/08/03 09:55:06;;;;;;;6.18;1.30;;;22.50;99.90;;;;;;5106950;28;20411;-73
2023/08/03 09:57:36;;;;;;;4.65;0.82;;;22.50;99.90;;;;;;5104605;28;20436;-72
2023/08/03 10:00:06;;;;;;;5.55;1.20;;;22.90;99.90;;;;;;5106010;28;20416;-72
2023/08/03 10:02:43;;;;;;;5.78;1.20;;;22.90;99.90;;;;;;5083129;28;20561;-73
2023/08/03 10:05:13;;;;;;;6.43;1.17;;;22.70;99.90;;;;;;5104555;28;20476;-73
2023/08/03 10:07:48;;;;;;;6.35;1.50;;;22.30;99.90;;;;;;5105239;28;20408;-73
2023/08/03 10:10:15;;;;;;;5.82;1.35;;;21.80;99.90;;;;;;5104232;28;20400;-73
2023/08/03 10:12:46;;;;;;;7.67;1.87;;;21.40;99.90;;;;;;5106195;28;20488;-73
2023/08/03 10:15:16;;;;;;;6.13;1.80;;;21.10;99.90;;;;;;5103518;28;20392;-73
2023/08/03 10:17:43;;;;;;;7.55;2.45;;;21.00;99.90;;;;;;5093617;28;20426;-73
2023/08/03 10:20:09;;;;;;;8.20;2.00;;;21.30;99.90;;;;;;5105504;28;20396;-73
2023/08/03 10:22:35;;;;;;;7.43;1.67;;;21.80;99.90;;;;;;5107053;28;20400;-71
2023/08/03 10:25:17;;;;;;;9.30;1.90;;;22.30;99.90;;;;;;5105417;28;20905;-71
2023/08/03 10:28:13;;;;;;;7.65;1.48;;;22.80;99.90;;;;;;5105199;28;20412;-71
2023/08/03 10:31:10;;;;;;;7.00;1.17;;;23.20;99.90;;;;;;5110596;28;20438;-71
2023/08/03 10:36:26;;;;;;;5.20;0.77;;;23.60;99.90;;;;;;5106745;28;20945;-71
2023/08/03 10:38:52;;;;;;;6.57;1.30;;;23.60;99.90;;;;;;5109091;28;20412;-71
2023/08/03 10:41:23;;;;;;;7.32;1.05;;;23.70;99.90;;;;;;5107241;28;20432;-71
2023/08/03 10:44:14;;;;;;;4.88;0.95;;;23.80;99.90;;;;;;5108724;28;20450;-71
2023/08/03 10:46:48;;;;;;;3.67;0.82;;;24.20;99.90;;;;;;5088380;28;20491;-72
2023/08/03 10:49:27;;;;;;;6.40;1.20;;;24.40;99.90;;;;;;5104911;28;20410;-72
2023/08/03 10:52:16;;;;;;;5.50;0.80;;;24.70;99.90;;;;;;5106521;28;20457;-71
2023/08/03 10:54:43;;;;;;;5.18;1.00;;;24.90;99.90;;;;;;5081679;28;20402;-72
2023/08/03 10:57:13;;;;;;;6.03;0.90;;;25.00;99.90;;;;;;5100261;28;20432;-71
2023/08/03 10:59:44;;;;;;;3.67;0.85;;;24.70;99.90;;;;;;5098060;28;20431;-72
2023/08/03 11:02:20;;;;;;;6.73;0.70;;;24.60;99.90;;;;;;5101481;28;20414;-72
2023/08/03 11:04:47;;;;;;;4.50;0.70;;;24.60;99.90;;;;;;5105593;28;20404;-70
2023/08/03 11:07:18;;;;;;;4.17;0.90;;;24.70;99.90;;;;;;5099169;28;20409;-72
2023/08/03 11:09:48;;;;;;;4.05;0.80;;;24.70;99.90;;;;;;5099342;28;20431;-72
2023/08/03 11:12:16;;;;;;;5.40;0.75;;;24.70;99.90;;;;;;5098851;28;20891;-72
2023/08/03 11:14:47;;;;;;;4.55;0.95;;;24.90;99.90;;;;;;5099174;28;20407;-72
2023/08/03 11:17:14;;;;;;;7.77;1.20;;;25.10;99.90;;;;;;5090854;28;20546;-72
2023/08/03 11:19:40;;;;;;;4.75;1.00;;;25.10;99.90;;;;;;5081463;28;20404;-73
2023/08/03 11:22:06;;;;;;;4.60;1.00;;;25.20;99.90;;;;;;5109488;28;20749;-72
2023/08/03 11:24:32;;;;;;;4.97;1.08;;;24.90;99.90;;;;;;5093905;28;20491;-72
2023/08/03 11:26:59;;;;;;;3.97;1.00;;;24.60;99.90;;;;;;5098033;28;20399;-72
2023/08/03 11:29:25;;;;;;;4.70;1.00;;;24.50;99.90;;;;;;5108382;28;20475;-72
2023/08/03 11:31:50;;;;;;;5.57;0.82;;;24.30;99.90;;;;;;5109683;28;20898;-72
2023/08/03 11:34:16;;;;;;;4.00;0.70;;;24.40;99.90;;;;;;5107775;28;20396;-72
2023/08/03 11:36:48;;;;;;;3.17;0.55;;;24.60;99.90;;;;;;5109366;28;20412;-71
2023/08/03 11:39:14;;;;;;;4.82;0.98;;;24.90;99.90;;;;;;5107761;27;20414;-71
2023/08/03 11:41:41;;;;;;;6.30;0.80;;;24.90;99.90;;;;;;5098951;28;20394;-71
2023/08/03 11:44:07;;;;;;;4.28;0.60;;;24.90;99.90;;;;;;5102423;28;20394;-72
2023/08/03 11:46:33;;;;;;;3.17;0.82;;;25.10;99.90;;;;;;5107434;28;20404;-71
2023/08/03 11:49:00;;;;;;;5.10;0.60;;;25.30;99.90;;;;;;5093693;28;20986;-71
2023/08/03 11:51:30;;;;;;;3.63;0.50;;;25.20;99.90;;;;;;5107887;28;20445;-72
2023/08/03 11:53:56;;;;;;;2.63;0.50;;;25.20;99.90;;;;;;5107771;28;20477;-71
2023/08/03 11:56:21;;;;;;;2.60;0.40;;;25.30;99.90;;;;;;5108771;28;20492;-71
2023/08/03 11:58:47;;;;;;;1.63;0.40;;;25.30;99.90;;;;;;5104650;28;20403;-71
2023/08/03 12:01:13;;;;;;;2.80;0.30;;;25.50;99.90;;;;;;5081998;28;20413;-71
2023/08/03 12:03:39;;;;;;;1.70;0.38;;;25.60;99.90;;;;;;5107040;28;20402;-71
2023/08/03 12:06:09;;;;;;;2.75;0.30;;;25.60;99.90;;;;;;5110328;28;20488;-71
2023/08/03 12:08:41;;;;;;;3.07;0.40;;;25.70;99.90;;;;;;5103254;28;20402;-72
2023/08/03 12:11:07;;;;;;;2.58;0.55;;;25.80;99.90;;;;;;5099588;28;20413;-71
2023/08/03 12:13:32;;;;;;;4.28;0.50;;;26.00;99.90;;;;;;5102803;28;20491;-71
2023/08/03 12:15:58;;;;;;;2.97;0.57;;;26.20;99.90;;;;;;5100752;28;20396;-72
2023/08/03 12:18:25;;;;;;;3.95;0.50;;;26.40;99.90;;;;;;5094996;28;20424;-71
2023/08/03 12:20:51;;;;;;;2.83;0.65;;;26.60;99.90;;;;;;5107693;28;20404;-72
2023/08/03 12:23:20;;;;;;;3.33;0.57;;;26.70;99.90;;;;;;5107697;28;20744;-72
2023/08/03 12:25:46;;;;;;;3.40;0.50;;;26.70;99.90;;;;;;5095828;28;20421;-72
2023/08/03 12:28:12;;;;;;;5.93;0.80;;;26.60;99.90;;;;;;5105916;28;20409;-72
2023/08/03 12:30:39;;;;;;;6.07;0.80;;;26.40;99.90;;;;;;5107594;28;20396;-71
2023/08/03 12:33:08;;;;;;;3.90;0.77;;;26.30;99.90;;;;;;5106581;28;20400;-72
2023/08/03 12:35:34;;;;;;;6.72;0.90;;;26.10;99.90;;;;;;5106270;28;20944;-72
2023/08/03 12:38:00;;;;;;;5.78;0.85;;;25.90;99.90;;;;;;5106174;28;20432;-73
2023/08/03 12:40:27;;;;;;;3.40;0.70;;;26.00;99.90;;;;;;5106952;28;20400;-73
2023/08/03 12:42:53;;;;;;;4.20;0.57;;;26.10;99.90;;;;;;5104727;28;20759;-72
2023/08/03 12:45:18;;;;;;;3.78;0.60;;;26.00;99.90;;;;;;5105728;28;20393;-72
2023/08/03 12:47:45;;;;;;;3.87;0.53;;;25.70;99.90;;;;;;5104269;28;20412;-72